Lady Joyelle — WDH2555 — position and weather

sailwx.info

Track history (hours):
 
Tides and Currents Weather Stations Pressure Air Temp Water Temp Dewpoint Dewpoint Depression Visibility Wind Speed Wind Dir Waves Ship Positions

Lady Joyelle

Owner: Deep South Marine, LLC, Belle Chasse, LA. More information available from US FCC via Universal Licensing System and Coast Guard Vessel Documentation Center.

Last reported at 2018-Feb-10 02:18 UTC. Time now 2018-Apr-24 14:29 UTC.
Position N 29°33' W 090°28'.
Warning: this ship's position is months out of date.

Length 23 m.

Type: Tug. MMSI: 367598830.

Date/timePositionNaut miles runAvg speedWind from/ knotsBaromVisibWave heightAir tempDewpointWater temp
2018-Feb-10 02:18N 29°33' W 090°28'2 7.7
2018-Feb-10 02:00N 29°34' W 090°30'4 7.7
2018-Feb-10 01:30N 29°34' W 090°35'3 6.8
2018-Feb-10 01:00N 29°35' W 090°38'4 7.1
2018-Feb-10 00:30N 29°37' W 090°42'3 5.5
2018-Feb-09 23:58N 29°34' W 090°43'0 0.1
2018-Feb-09 23:30N 29°34' W 090°43'1 1.1
2018-Feb-09 23:00N 29°34' W 090°44'1 6.5
2018-Feb-09 22:46N 29°33' W 090°45'4 0.6
2018-Feb-09 16:01N 29°32' W 090°50'3 6.2
2018-Feb-09 15:30N 29°32' W 090°46'3 5.1
2018-Feb-09 15:00N 29°34' W 090°44'3 2.5
2018-Feb-09 14:01N 29°36' W 090°43'2 4.2
2018-Feb-09 13:30N 29°36' W 090°40'3 6.1
2018-Feb-09 13:00N 29°35' W 090°37'2 3.3
2018-Feb-09 12:30N 29°35' W 090°35'  
Track history (hours):
 
Tides and Currents Weather Stations Pressure Air Temp Water Temp Dewpoint Dewpoint Depression Visibility Wind Speed Wind Dir Waves Ship Positions

Lady Joyelle

Owner: Deep South Marine, LLC, Belle Chasse, LA. More information available from US FCC via Universal Licensing System and Coast Guard Vessel Documentation Center.

Last reported at 2018-Feb-10 02:18 UTC. Time now 2018-Apr-24 14:29 UTC.
Position N 29°33' W 090°28'.
Warning: this ship's position is months out of date.

Length 23 m.

Type: Tug. MMSI: 367598830.

Date/timePositionNaut miles runAvg speedWind from/ knotsBaromVisibWave heightAir tempDewpointWater temp
2018-Feb-10 02:18N 29°33' W 090°28'2 7.7
2018-Feb-10 02:00N 29°34' W 090°30'4 7.7
2018-Feb-10 01:30N 29°34' W 090°35'3 6.8
2018-Feb-10 01:00N 29°35' W 090°38'4 7.1
2018-Feb-10 00:30N 29°37' W 090°42'3 5.5
2018-Feb-09 23:58N 29°34' W 090°43'0 0.1
2018-Feb-09 23:30N 29°34' W 090°43'1 1.1
2018-Feb-09 23:00N 29°34' W 090°44'1 6.5
2018-Feb-09 22:46N 29°33' W 090°45'4 0.6
2018-Feb-09 16:01N 29°32' W 090°50'3 6.2
2018-Feb-09 15:30N 29°32' W 090°46'3 5.1
2018-Feb-09 15:00N 29°34' W 090°44'3 2.5
2018-Feb-09 14:01N 29°36' W 090°43'2 4.2
2018-Feb-09 13:30N 29°36' W 090°40'3 6.1
2018-Feb-09 13:00N 29°35' W 090°37'2 3.3
2018-Feb-09 12:30N 29°35' W 090°35'  

Dump ship's entire track history